sensor_id;sensor_type;location;lat;lon;timestamp;pressure;altitude;pressure_sealevel;temperature;humidity
10618;BME280;5356;43.526;26.534;2023-06-10T00:01:49;98582.72;;;18.59;100.00
10618;BME280;5356;43.526;26.534;2023-06-10T00:04:15;98577.88;;;18.61;100.00
10618;BME280;5356;43.526;26.534;2023-06-10T00:06:43;98575.38;;;18.65;100.00
10618;BME280;5356;43.526;26.534;2023-06-10T00:09:09;98576.22;;;18.66;100.00
10618;BME280;5356;43.526;26.534;2023-06-10T00:11:36;98571.03;;;18.69;100.00
10618;BME280;5356;43.526;26.534;2023-06-10T00:14:01;98570.13;;;18.55;100.00
10618;BME280;5356;43.526;26.534;2023-06-10T00:16:27;98569.56;;;18.58;100.00
10618;BME280;5356;43.526;26.534;2023-06-10T00:18:53;98562.78;;;18.60;100.00
10618;BME280;5356;43.526;26.534;2023-06-10T00:21:22;98568.19;;;18.60;100.00
10618;BME280;5356;43.526;26.534;2023-06-10T00:23:49;98568.97;;;18.61;100.00
10618;BME280;5356;43.526;26.534;2023-06-10T00:26:15;98561.22;;;18.54;100.00
10618;BME280;5356;43.526;26.534;2023-06-10T00:28:41;98563.34;;;18.57;100.00
10618;BME280;5356;43.526;26.534;2023-06-10T00:31:06;98569.56;;;18.58;100.00
10618;BME280;5356;43.526;26.534;2023-06-10T00:33:32;98569.56;;;18.58;100.00
10618;BME280;5356;43.526;26.534;2023-06-10T00:35:57;98570.97;;;18.50;100.00
10618;BME280;5356;43.526;26.534;2023-06-10T00:38:23;98568.28;;;18.50;100.00
10618;BME280;5356;43.526;26.534;2023-06-10T00:40:48;98565.06;;;18.48;100.00
10618;BME280;5356;43.526;26.534;2023-06-10T00:43:14;98568.84;;;18.47;100.00
10618;BME280;5356;43.526;26.534;2023-06-10T00:45:40;98570.63;;;18.33;100.00
10618;BME280;5356;43.526;26.534;2023-06-10T00:48:05;98567.97;;;18.28;100.00
10618;BME280;5356;43.526;26.534;2023-06-10T00:50:31;98569.38;;;18.20;100.00
10618;BME280;5356;43.526;26.534;2023-06-10T00:52:57;98569.38;;;18.20;100.00
10618;BME280;5356;43.526;26.534;2023-06-10T00:55:24;98569.69;;;18.18;100.00
10618;BME280;5356;43.526;26.534;2023-06-10T00:57:49;98572.97;;;18.15;100.00
10618;BME280;5356;43.526;26.534;2023-06-10T01:00:16;98569.22;;;18.11;100.00
10618;BME280;5356;43.526;26.534;2023-06-10T01:02:42;98566.25;;;18.13;100.00
10618;BME280;5356;43.526;26.534;2023-06-10T01:05:08;98567.34;;;18.12;100.00
10618;BME280;5356;43.526;26.534;2023-06-10T01:13:00;98567.56;;;18.15;100.00
10618;BME280;5356;43.526;26.534;2023-06-10T01:15:31;98564.66;;;18.12;100.00
10618;BME280;5356;43.526;26.534;2023-06-10T01:17:58;98569.22;;;18.11;100.00
10618;BME280;5356;43.526;26.534;2023-06-10T01:20:25;98563.34;;;18.04;100.00
10618;BME280;5356;43.526;26.534;2023-06-10T01:22:55;98564.47;;;18.03;100.00
10618;BME280;5356;43.526;26.534;2023-06-10T01:25:23;98564.97;;;18.05;100.00
10618;BME280;5356;43.526;26.534;2023-06-10T01:27:55;98565.47;;;18.07;100.00
10618;BME280;5356;43.526;26.534;2023-06-10T01:30:27;98568.44;;;18.06;100.00
10618;BME280;5356;43.526;26.534;2023-06-10T01:32:58;98570.91;;;18.02;100.00
10618;BME280;5356;43.526;26.534;2023-06-10T01:35:25;98566.91;;;18.00;100.00
10618;BME280;5356;43.526;26.534;2023-06-10T01:37:56;98558.56;;;17.62;100.00
10618;BME280;5356;43.526;26.534;2023-06-10T01:40:23;98556.28;;;17.40;100.00
10618;BME280;5356;43.526;26.534;2023-06-10T01:42:51;98569.00;;;17.29;100.00
10618;BME280;5356;43.526;26.534;2023-06-10T01:45:17;98573.13;;;17.16;100.00
10618;BME280;5356;43.526;26.534;2023-06-10T01:47:43;98567.19;;;17.19;100.00
10618;BME280;5356;43.526;26.534;2023-06-10T01:50:08;98562.81;;;17.28;100.00
10618;BME280;5356;43.526;26.534;2023-06-10T01:52:34;98560.88;;;17.39;100.00
10618;BME280;5356;43.526;26.534;2023-06-10T01:54:59;98559.53;;;17.42;100.00
10618;BME280;5356;43.526;26.534;2023-06-10T01:57:25;98563.91;;;17.27;100.00
10618;BME280;5356;43.526;26.534;2023-06-10T01:59:50;98562.84;;;17.23;100.00
10618;BME280;5356;43.526;26.534;2023-06-10T02:02:16;98566.63;;;17.22;100.00
10618;BME280;5356;43.526;26.534;2023-06-10T02:04:41;98567.75;;;17.16;100.00
10618;BME280;5356;43.526;26.534;2023-06-10T02:07:06;98564.53;;;17.14;100.00
10618;BME280;5356;43.526;26.534;2023-06-10T02:09:32;98574.25;;;17.10;100.00
10618;BME280;5356;43.526;26.534;2023-06-10T02:12:01;98569.91;;;17.14;100.00
10618;BME280;5356;43.526;26.534;2023-06-10T02:14:27;98572.56;;;17.24;100.00
10618;BME280;5356;43.526;26.534;2023-06-10T02:16:52;98572.47;;;17.35;100.00
10618;BME280;5356;43.526;26.534;2023-06-10T02:19:21;98574.03;;;17.41;100.00
10618;BME280;5356;43.526;26.534;2023-06-10T02:21:47;98576.25;;;17.34;100.00
10618;BME280;5356;43.526;26.534;2023-06-10T02:24:13;98582.84;;;17.12;100.00
10618;BME280;5356;43.526;26.534;2023-06-10T02:26:38;98579.66;;;17.05;100.00
10618;BME280;5356;43.526;26.534;2023-06-10T02:29:05;98580.22;;;17.02;100.00
10618;BME280;5356;43.526;26.534;2023-06-10T02:31:31;98573.97;;;17.06;100.00
10618;BME280;5356;43.526;26.534;2023-06-10T02:33:56;98575.59;;;17.13;100.00
10618;BME280;5356;43.526;26.534;2023-06-10T02:36:22;98571.50;;;17.15;100.00
10618;BME280;5356;43.526;26.534;2023-06-10T02:38:49;98570.22;;;17.13;100.00
10618;BME280;5356;43.526;26.534;2023-06-10T02:41:15;98567.75;;;17.16;100.00
10618;BME280;5356;43.526;26.534;2023-06-10T02:43:40;98561.56;;;17.16;100.00
10618;BME280;5356;43.526;26.534;2023-06-10T02:46:06;98569.34;;;17.17;100.00
10618;BME280;5356;43.526;26.534;2023-06-10T02:48:31;98563.44;;;17.15;100.00
10618;BME280;5356;43.526;26.534;2023-06-10T02:50:56;98572.59;;;17.14;100.00
10618;BME280;5356;43.526;26.534;2023-06-10T02:53:22;98566.25;;;16.95;100.00
10618;BME280;5356;43.526;26.534;2023-06-10T02:55:47;98571.16;;;16.77;100.00
10618;BME280;5356;43.526;26.534;2023-06-10T02:58:13;98568.53;;;16.57;100.00
10618;BME280;5356;43.526;26.534;2023-06-10T03:00:38;98574.97;;;16.56;100.00
10618;BME280;5356;43.526;26.534;2023-06-10T03:03:06;98567.41;;;16.63;100.00
10618;BME280;5356;43.526;26.534;2023-06-10T03:05:32;98579.22;;;16.67;100.00
10618;BME280;5356;43.526;26.534;2023-06-10T03:07:58;98577.88;;;16.80;100.00
10618;BME280;5356;43.526;26.534;2023-06-10T03:10:23;98569.78;;;16.90;100.00
10618;BME280;5356;43.526;26.534;2023-06-10T03:12:48;98567.56;;;17.02;100.00
10618;BME280;5356;43.526;26.534;2023-06-10T03:15:14;98565.09;;;17.11;100.00
10618;BME280;5356;43.526;26.534;2023-06-10T03:17:41;98569.88;;;17.19;100.00
10618;BME280;5356;43.526;26.534;2023-06-10T03:20:06;98564.75;;;17.23;100.00
10618;BME280;5356;43.526;26.534;2023-06-10T03:22:35;98571.19;;;17.27;100.00
10618;BME280;5356;43.526;26.534;2023-06-10T03:25:01;98571.69;;;17.34;100.00
10618;BME280;5356;43.526;26.534;2023-06-10T03:27:27;98576.25;;;17.34;100.00
10618;BME280;5356;43.526;26.534;2023-06-10T03:29:52;98577.84;;;17.40;100.00
10618;BME280;5356;43.526;26.534;2023-06-10T03:32:17;98573.25;;;17.40;100.00
10618;BME280;5356;43.526;26.534;2023-06-10T03:34:43;98569.19;;;17.43;100.00
10618;BME280;5356;43.526;26.534;2023-06-10T03:37:10;98569.69;;;17.50;100.00
10618;BME280;5356;43.526;26.534;2023-06-10T03:39:35;98571.59;;;17.49;100.00
10618;BME280;5356;43.526;26.534;2023-06-10T03:42:01;98575.59;;;17.52;100.00
10618;BME280;5356;43.526;26.534;2023-06-10T03:44:27;98570.19;;;17.52;100.00
10618;BME280;5356;43.526;26.534;2023-06-10T03:46:56;98565.66;;;17.53;100.00
10618;BME280;5356;43.526;26.534;2023-06-10T03:49:22;98576.16;;;17.49;100.00
10618;BME280;5356;43.526;26.534;2023-06-10T03:51:50;98574.78;;;17.51;100.00
10618;BME280;5356;43.526;26.534;2023-06-10T03:54:16;98576.34;;;17.58;100.00
10618;BME280;5356;43.526;26.534;2023-06-10T03:56:41;98570.16;;;17.57;100.00
10618;BME280;5356;43.526;26.534;2023-06-10T03:59:07;98569.09;;;17.58;100.00
10618;BME280;5356;43.526;26.534;2023-06-10T04:01:32;98570.13;;;17.62;100.00
10618;BME280;5356;43.526;26.534;2023-06-10T04:03:58;98577.66;;;17.65;100.00
10618;BME280;5356;43.526;26.534;2023-06-10T04:06:24;98585.50;;;17.62;100.00
10618;BME280;5356;43.526;26.534;2023-06-10T04:08:50;98569.81;;;17.69;100.00
10618;BME280;5356;43.526;26.534;2023-06-10T04:11:16;98570.88;;;17.73;100.00
10618;BME280;5356;43.526;26.534;2023-06-10T04:13:42;98570.56;;;17.80;100.00
10618;BME280;5356;43.526;26.534;2023-06-10T04:16:08;98570.53;;;17.85;100.00
10618;BME280;5356;43.526;26.534;2023-06-10T04:18:34;98573.75;;;17.87;100.00
10618;BME280;5356;43.526;26.534;2023-06-10T04:21:00;98574.25;;;17.89;100.00
10618;BME280;5356;43.526;26.534;2023-06-10T04:23:26;98579.59;;;17.94;100.00
10618;BME280;5356;43.526;26.534;2023-06-10T04:25:52;98585.03;;;17.89;100.00
10618;BME280;5356;43.526;26.534;2023-06-10T04:28:17;98581.47;;;17.99;100.00
10618;BME280;5356;43.526;26.534;2023-06-10T04:30:42;98578.69;;;18.09;100.00
10618;BME280;5356;43.526;26.534;2023-06-10T04:33:10;98576.09;;;18.23;100.00
10618;BME280;5356;43.526;26.534;2023-06-10T04:35:35;98581.16;;;18.34;100.00
10618;BME280;5356;43.526;26.534;2023-06-10T04:38:00;98578.94;;;18.36;100.00
10618;BME280;5356;43.526;26.534;2023-06-10T04:40:28;98579.94;;;18.46;100.00
10618;BME280;5356;43.526;26.534;2023-06-10T04:42:53;98578.22;;;18.55;100.00
10618;BME280;5356;43.526;26.534;2023-06-10T04:45:19;98574.94;;;18.58;100.00
10618;BME280;5356;43.526;26.534;2023-06-10T04:47:44;98583.44;;;18.70;100.00
10618;BME280;5356;43.526;26.534;2023-06-10T04:50:10;98585.84;;;18.77;100.00
10618;BME280;5356;43.526;26.534;2023-06-10T04:52:35;98575.19;;;18.86;100.00
10618;BME280;5356;43.526;26.534;2023-06-10T04:55:01;98586.22;;;18.89;100.00
10618;BME280;5356;43.526;26.534;2023-06-10T04:57:26;98586.38;;;18.98;100.00
10618;BME280;5356;43.526;26.534;2023-06-10T04:59:52;98582.50;;;19.04;100.00
10618;BME280;5356;43.526;26.534;2023-06-10T05:02:18;98592.94;;;19.11;100.00
10618;BME280;5356;43.526;26.534;2023-06-10T05:04:43;98590.19;;;19.16;100.00
10618;BME280;5356;43.526;26.534;2023-06-10T05:07:09;98587.94;;;19.23;100.00
10618;BME280;5356;43.526;26.534;2023-06-10T05:09:34;98587.19;;;19.36;100.00
10618;BME280;5356;43.526;26.534;2023-06-10T05:12:00;98581.38;;;19.48;100.00
10618;BME280;5356;43.526;26.534;2023-06-10T05:14:26;98587.91;;;19.61;100.00
10618;BME280;5356;43.526;26.534;2023-06-10T05:16:52;98585.09;;;19.71;100.00
10618;BME280;5356;43.526;26.534;2023-06-10T05:19:18;98581.94;;;19.83;100.00
10618;BME280;5356;43.526;26.534;2023-06-10T05:21:44;98580.94;;;19.92;100.00
10618;BME280;5356;43.526;26.534;2023-06-10T05:24:10;98575.97;;;20.00;100.00
10618;BME280;5356;43.526;26.534;2023-06-10T05:26:36;98579.41;;;20.05;100.00
10618;BME280;5356;43.526;26.534;2023-06-10T05:29:03;98580.78;;;20.03;100.00
10618;BME280;5356;43.526;26.534;2023-06-10T05:31:28;98581.72;;;20.12;100.00
10618;BME280;5356;43.526;26.534;2023-06-10T05:33:54;98583.44;;;20.22;100.00
10618;BME280;5356;43.526;26.534;2023-06-10T05:36:19;98577.63;;;20.28;100.00
10618;BME280;5356;43.526;26.534;2023-06-10T05:38:45;98576.25;;;20.31;100.00
10618;BME280;5356;43.526;26.534;2023-06-10T05:41:10;98585.47;;;20.44;100.00
10618;BME280;5356;43.526;26.534;2023-06-10T05:43:35;98584.50;;;20.53;100.00
10618;BME280;5356;43.526;26.534;2023-06-10T05:46:01;98592.13;;;20.65;100.00
10618;BME280;5356;43.526;26.534;2023-06-10T05:48:27;98585.50;;;20.71;100.00
10618;BME280;5356;43.526;26.534;2023-06-10T05:50:52;98588.13;;;20.76;100.00
10618;BME280;5356;43.526;26.534;2023-06-10T05:53:17;98583.13;;;20.83;100.00
10618;BME280;5356;43.526;26.534;2023-06-10T05:55:44;98585.59;;;20.94;100.00
10618;BME280;5356;43.526;26.534;2023-06-10T05:58:10;98582.19;;;21.02;100.00
10618;BME280;5356;43.526;26.534;2023-06-10T06:00:40;98589.09;;;21.08;100.00
10618;BME280;5356;43.526;26.534;2023-06-10T06:03:09;98592.50;;;21.14;100.00
10618;BME280;5356;43.526;26.534;2023-06-10T06:05:35;98586.06;;;21.23;100.00
10618;BME280;5356;43.526;26.534;2023-06-10T06:08:05;98599.97;;;21.30;100.00
10618;BME280;5356;43.526;26.534;2023-06-10T06:10:31;98598.91;;;21.32;100.00
10618;BME280;5356;43.526;26.534;2023-06-10T06:12:56;98594.66;;;21.39;100.00
10618;BME280;5356;43.526;26.534;2023-06-10T06:15:22;98594.28;;;21.46;100.00
10618;BME280;5356;43.526;26.534;2023-06-10T06:17:47;98595.25;;;21.50;100.00
10618;BME280;5356;43.526;26.534;2023-06-10T06:20:13;98598.53;;;21.61;100.00
10618;BME280;5356;43.526;26.534;2023-06-10T06:22:38;98595.78;;;21.74;100.00
10618;BME280;5356;43.526;26.534;2023-06-10T06:25:04;98598.72;;;21.87;100.00
10618;BME280;5356;43.526;26.534;2023-06-10T06:27:31;98588.66;;;21.87;100.00
10618;BME280;5356;43.526;26.534;2023-06-10T06:29:56;98593.19;;;21.92;100.00
10618;BME280;5356;43.526;26.534;2023-06-10T06:32:22;98593.13;;;22.06;100.00
10618;BME280;5356;43.526;26.534;2023-06-10T06:34:49;98583.09;;;22.15;100.00
10618;BME280;5356;43.526;26.534;2023-06-10T06:37:23;98578.69;;;22.19;100.00
10618;BME280;5356;43.526;26.534;2023-06-10T06:39:52;98590.06;;;22.30;100.00
10618;BME280;5356;43.526;26.534;2023-06-10T06:42:17;98588.03;;;22.35;100.00
10618;BME280;5356;43.526;26.534;2023-06-10T06:44:44;98587.84;;;22.32;100.00
10618;BME280;5356;43.526;26.534;2023-06-10T06:47:09;98583.38;;;22.36;100.00
10618;BME280;5356;43.526;26.534;2023-06-10T06:49:35;98582.16;;;22.42;100.00
10618;BME280;5356;43.526;26.534;2023-06-10T06:52:01;98582.16;;;22.42;100.00
10618;BME280;5356;43.526;26.534;2023-06-10T06:54:26;98573.22;;;22.50;100.00
10618;BME280;5356;43.526;26.534;2023-06-10T06:56:52;98581.59;;;22.62;100.00
10618;BME280;5356;43.526;26.534;2023-06-10T06:59:17;98574.78;;;22.74;100.00
10618;BME280;5356;43.526;26.534;2023-06-10T07:01:46;98582.59;;;22.84;100.00
10618;BME280;5356;43.526;26.534;2023-06-10T07:04:14;98577.81;;;22.81;99.70
10618;BME280;5356;43.526;26.534;2023-06-10T07:06:41;98576.25;;;22.89;99.75
10618;BME280;5356;43.526;26.534;2023-06-10T07:09:09;98577.25;;;23.01;98.76
10618;BME280;5356;43.526;26.534;2023-06-10T07:11:35;98573.09;;;23.13;97.50
10618;BME280;5356;43.526;26.534;2023-06-10T07:14:00;98576.47;;;23.18;97.68
10618;BME280;5356;43.526;26.534;2023-06-10T07:16:25;98576.47;;;23.18;95.66
10618;BME280;5356;43.526;26.534;2023-06-10T07:18:52;98569.94;;;23.19;95.72
10618;BME280;5356;43.526;26.534;2023-06-10T07:21:18;98581.94;;;23.36;94.78
10618;BME280;5356;43.526;26.534;2023-06-10T07:23:43;98580.50;;;23.38;92.85
10618;BME280;5356;43.526;26.534;2023-06-10T07:26:10;98574.44;;;23.41;92.77
10618;BME280;5356;43.526;26.534;2023-06-10T07:28:40;98576.97;;;23.46;92.19
10618;BME280;5356;43.526;26.534;2023-06-10T07:31:07;98583.06;;;23.69;92.06
10618;BME280;5356;43.526;26.534;2023-06-10T07:33:32;98571.06;;;23.88;91.65
10618;BME280;5356;43.526;26.534;2023-06-10T07:35:57;98564.31;;;24.03;91.27
10618;BME280;5356;43.526;26.534;2023-06-10T07:38:24;98565.69;;;24.17;89.57
10618;BME280;5356;43.526;26.534;2023-06-10T07:40:50;98562.63;;;24.28;88.93
10618;BME280;5356;43.526;26.534;2023-06-10T07:43:15;98560.38;;;24.38;88.38
10618;BME280;5356;43.526;26.534;2023-06-10T07:45:41;98563.56;;;24.40;87.82
10618;BME280;5356;43.526;26.534;2023-06-10T07:48:06;98561.84;;;24.65;87.93
10618;BME280;5356;43.526;26.534;2023-06-10T07:50:32;98564.34;;;24.79;87.49
10618;BME280;5356;43.526;26.534;2023-06-10T07:52:58;98562.72;;;24.87;85.56
10618;BME280;5356;43.526;26.534;2023-06-10T07:55:24;98560.59;;;24.93;84.25
10618;BME280;5356;43.526;26.534;2023-06-10T07:57:51;98553.94;;;25.02;83.35
10618;BME280;5356;43.526;26.534;2023-06-10T08:00:17;98563.22;;;25.10;81.74
10618;BME280;5356;43.526;26.534;2023-06-10T08:02:43;98562.66;;;25.25;81.91
10618;BME280;5356;43.526;26.534;2023-06-10T08:05:08;98560.19;;;25.33;81.53
10618;BME280;5356;43.526;26.534;2023-06-10T08:07:34;98562.78;;;25.50;81.70
10618;BME280;5356;43.526;26.534;2023-06-10T08:10:00;98568.91;;;25.47;78.27
10618;BME280;5356;43.526;26.534;2023-06-10T08:12:27;98563.88;;;25.37;77.00
10618;BME280;5356;43.526;26.534;2023-06-10T08:14:52;98560.25;;;25.45;77.51
10618;BME280;5356;43.526;26.534;2023-06-10T08:17:18;98559.38;;;25.53;78.20
10618;BME280;5356;43.526;26.534;2023-06-10T08:19:44;98553.47;;;25.51;76.40
10618;BME280;5356;43.526;26.534;2023-06-10T08:22:09;98558.50;;;25.61;76.50
10618;BME280;5356;43.526;26.534;2023-06-10T08:24:35;98564.91;;;25.65;75.60
10618;BME280;5356;43.526;26.534;2023-06-10T08:27:01;98556.13;;;25.60;73.52
10618;BME280;5356;43.526;26.534;2023-06-10T08:29:26;98557.97;;;25.68;74.23
10618;BME280;5356;43.526;26.534;2023-06-10T08:31:51;98549.31;;;25.87;74.07
10618;BME280;5356;43.526;26.534;2023-06-10T08:34:18;98553.97;;;25.86;72.57
10618;BME280;5356;43.526;26.534;2023-06-10T08:36:44;98552.09;;;25.99;73.22
10618;BME280;5356;43.526;26.534;2023-06-10T08:39:10;98551.16;;;25.95;72.15
10618;BME280;5356;43.526;26.534;2023-06-10T08:41:41;98553.78;;;25.91;71.99
10618;BME280;5356;43.526;26.534;2023-06-10T08:44:17;98558.47;;;26.03;71.68
10618;BME280;5356;43.526;26.534;2023-06-10T08:46:47;98548.63;;;25.90;69.86
10618;BME280;5356;43.526;26.534;2023-06-10T08:49:18;98551.84;;;26.04;70.59
10618;BME280;5356;43.526;26.534;2023-06-10T08:51:49;98548.47;;;26.07;70.48
10618;BME280;5356;43.526;26.534;2023-06-10T08:54:20;98546.66;;;26.11;69.64
10618;BME280;5356;43.526;26.534;2023-06-10T08:56:49;98549.84;;;26.26;69.31
10618;BME280;5356;43.526;26.534;2023-06-10T08:59:16;98545.28;;;26.30;69.05
10618;BME280;5356;43.526;26.534;2023-06-10T09:01:43;98547.38;;;26.33;67.00
10618;BME280;5356;43.526;26.534;2023-06-10T09:04:09;98537.03;;;26.38;68.26
10618;BME280;5356;43.526;26.534;2023-06-10T09:06:35;98538.81;;;26.47;67.71
10618;BME280;5356;43.526;26.534;2023-06-10T09:09:02;98532.25;;;26.48;65.92
10618;BME280;5356;43.526;26.534;2023-06-10T09:11:28;98537.47;;;26.40;63.21
10618;BME280;5356;43.526;26.534;2023-06-10T09:13:53;98537.50;;;26.53;63.74
10618;BME280;5356;43.526;26.534;2023-06-10T09:16:19;98537.84;;;26.63;63.46
10618;BME280;5356;43.526;26.534;2023-06-10T09:18:45;98530.22;;;26.57;61.85
10618;BME280;5356;43.526;26.534;2023-06-10T09:21:10;98533.97;;;26.64;61.82
10618;BME280;5356;43.526;26.534;2023-06-10T09:23:37;98534.19;;;26.72;61.61
10618;BME280;5356;43.526;26.534;2023-06-10T09:26:02;98533.97;;;26.64;61.02
10618;BME280;5356;43.526;26.534;2023-06-10T09:28:31;98529.19;;;26.74;61.09
10618;BME280;5356;43.526;26.534;2023-06-10T09:31:04;98536.59;;;26.73;60.00
10618;BME280;5356;43.526;26.534;2023-06-10T09:33:31;98534.19;;;26.84;60.68
10618;BME280;5356;43.526;26.534;2023-06-10T09:35:57;98533.59;;;26.91;60.94
10618;BME280;5356;43.526;26.534;2023-06-10T09:38:30;98533.38;;;26.83;59.99
10618;BME280;5356;43.526;26.534;2023-06-10T09:40:56;98532.16;;;26.81;59.65
10618;BME280;5356;43.526;26.534;2023-06-10T09:43:22;98526.22;;;26.79;60.45
10618;BME280;5356;43.526;26.534;2023-06-10T09:45:48;98528.47;;;27.01;60.55
10618;BME280;5356;43.526;26.534;2023-06-10T09:48:14;98528.78;;;27.12;60.01
10618;BME280;5356;43.526;26.534;2023-06-10T09:50:44;98529.41;;;27.34;57.25
10618;BME280;5356;43.526;26.534;2023-06-10T09:53:10;98524.91;;;27.53;56.86
10618;BME280;5356;43.526;26.534;2023-06-10T09:55:40;98520.53;;;27.65;56.18
10618;BME280;5356;43.526;26.534;2023-06-10T09:58:06;98521.69;;;27.64;53.43
10618;BME280;5356;43.526;26.534;2023-06-10T10:00:32;98514.31;;;27.80;54.49
10618;BME280;5356;43.526;26.534;2023-06-10T10:02:58;98520.19;;;27.94;53.69
10618;BME280;5356;43.526;26.534;2023-06-10T10:05:24;98506.84;;;28.09;54.21
10618;BME280;5356;43.526;26.534;2023-06-10T10:07:52;98506.75;;;28.21;53.65
10618;BME280;5356;43.526;26.534;2023-06-10T10:10:20;98504.19;;;28.28;52.08
10618;BME280;5356;43.526;26.534;2023-06-10T10:12:47;98507.28;;;28.27;50.64
10618;BME280;5356;43.526;26.534;2023-06-10T10:15:13;98497.31;;;28.34;50.20
10618;BME280;5356;43.526;26.534;2023-06-10T10:18:03;98494.94;;;28.49;49.34
10618;BME280;5356;43.526;26.534;2023-06-10T10:20:33;98501.88;;;28.30;49.81
10618;BME280;5356;43.526;26.534;2023-06-10T10:23:03;98493.63;;;28.42;50.40
10618;BME280;5356;43.526;26.534;2023-06-10T10:25:35;98491.78;;;28.66;50.77
10618;BME280;5356;43.526;26.534;2023-06-10T10:28:12;98500.47;;;29.03;50.42
10618;BME280;5356;43.526;26.534;2023-06-10T10:30:40;98496.22;;;29.25;49.43
10618;BME280;5356;43.526;26.534;2023-06-10T10:33:14;98501.50;;;29.15;49.00
10618;BME280;5356;43.526;26.534;2023-06-10T10:35:42;98495.94;;;29.30;48.90
10618;BME280;5356;43.526;26.534;2023-06-10T10:38:09;98490.59;;;29.38;48.04
10618;BME280;5356;43.526;26.534;2023-06-10T10:40:34;98488.00;;;29.25;47.88
10618;BME280;5356;43.526;26.534;2023-06-10T10:43:01;98493.97;;;29.12;48.72
10618;BME280;5356;43.526;26.534;2023-06-10T10:45:28;98489.50;;;29.03;48.92
10618;BME280;5356;43.526;26.534;2023-06-10T10:47:54;98486.41;;;29.24;48.84
10618;BME280;5356;43.526;26.534;2023-06-10T10:50:21;98487.78;;;29.34;48.23
10618;BME280;5356;43.526;26.534;2023-06-10T10:52:54;98486.81;;;29.46;46.24
10618;BME280;5356;43.526;26.534;2023-06-10T10:55:21;98488.00;;;29.45;44.93
10618;BME280;5356;43.526;26.534;2023-06-10T10:57:57;98483.50;;;29.56;45.92
10618;BME280;5356;43.526;26.534;2023-06-10T11:00:34;98481.16;;;29.77;45.71
10618;BME280;5356;43.526;26.534;2023-06-10T11:05:41;98465.00;;;30.18;44.54
10618;BME280;5356;43.526;26.534;2023-06-10T11:08:10;98471.06;;;30.05;43.39
10618;BME280;5356;43.526;26.534;2023-06-10T11:10:37;98468.94;;;29.75;44.04
10618;BME280;5356;43.526;26.534;2023-06-10T11:13:14;98471.22;;;29.69;44.73
10618;BME280;5356;43.526;26.534;2023-06-10T11:15:45;98465.88;;;29.38;45.32
10618;BME280;5356;43.526;26.534;2023-06-10T11:18:24;98461.53;;;29.56;45.58
10618;BME280;5356;43.526;26.534;2023-06-10T11:26:18;98467.44;;;30.01;44.41
10618;BME280;5356;43.526;26.534;2023-06-10T11:31:40;98468.00;;;29.87;44.13
10618;BME280;5356;43.526;26.534;2023-06-10T11:34:06;98466.09;;;29.91;44.91
10618;BME280;5356;43.526;26.534;2023-06-10T11:36:34;98462.28;;;29.95;44.83
10618;BME280;5356;43.526;26.534;2023-06-10T11:39:04;98452.91;;;30.00;44.06
10618;BME280;5356;43.526;26.534;2023-06-10T11:41:31;98458.59;;;30.11;43.60
10618;BME280;5356;43.526;26.534;2023-06-10T11:44:01;98444.25;;;30.21;42.70
10618;BME280;5356;43.526;26.534;2023-06-10T11:46:27;98444.91;;;30.14;42.56
10618;BME280;5356;43.526;26.534;2023-06-10T11:48:55;98440.50;;;30.33;42.86
10618;BME280;5356;43.526;26.534;2023-06-10T11:51:20;98441.47;;;30.44;42.59
10618;BME280;5356;43.526;26.534;2023-06-10T11:53:47;98429.09;;;30.57;43.04
10618;BME280;5356;43.526;26.534;2023-06-10T11:56:13;98434.22;;;30.59;43.29
10618;BME280;5356;43.526;26.534;2023-06-10T11:58:43;98434.56;;;30.84;43.22
10618;BME280;5356;43.526;26.534;2023-06-10T12:01:10;98439.50;;;31.01;42.44
10618;BME280;5356;43.526;26.534;2023-06-10T12:03:37;98439.44;;;30.94;42.25
10618;BME280;5356;43.526;26.534;2023-06-10T12:06:05;98427.31;;;31.02;42.66
10618;BME280;5356;43.526;26.534;2023-06-10T12:08:31;98426.44;;;30.64;42.95
10618;BME280;5356;43.526;26.534;2023-06-10T12:10:57;98422.38;;;30.28;43.16
10618;BME280;5356;43.526;26.534;2023-06-10T12:13:25;98417.50;;;30.45;43.64
10618;BME280;5356;43.526;26.534;2023-06-10T12:15:51;98424.09;;;30.67;43.56
10618;BME280;5356;43.526;26.534;2023-06-10T12:20:44;98423.78;;;30.72;42.48
10618;BME280;5356;43.526;26.534;2023-06-10T12:23:10;98417.16;;;30.46;42.71
10618;BME280;5356;43.526;26.534;2023-06-10T12:25:36;98423.59;;;30.31;42.61
10618;BME280;5356;43.526;26.534;2023-06-10T12:28:05;98414.25;;;30.35;43.03
10618;BME280;5356;43.526;26.534;2023-06-10T12:30:32;98410.25;;;30.29;43.04
10618;BME280;5356;43.526;26.534;2023-06-10T12:32:57;98414.44;;;30.23;43.00
10618;BME280;5356;43.526;26.534;2023-06-10T12:35:25;98408.22;;;30.03;42.69
10618;BME280;5356;43.526;26.534;2023-06-10T12:40:27;98404.50;;;29.92;43.61
10618;BME280;5356;43.526;26.534;2023-06-10T12:42:54;98408.59;;;30.02;43.74
10618;BME280;5356;43.526;26.534;2023-06-10T12:45:31;98415.75;;;29.83;43.24
10618;BME280;5356;43.526;26.534;2023-06-10T12:48:11;98403.72;;;29.91;43.81
10618;BME280;5356;43.526;26.534;2023-06-10T12:50:41;98406.88;;;30.16;43.81
10618;BME280;5356;43.526;26.534;2023-06-10T12:53:08;98410.25;;;30.29;43.19
10618;BME280;5356;43.526;26.534;2023-06-10T12:55:33;98413.59;;;30.46;42.62
10618;BME280;5356;43.526;26.534;2023-06-10T12:57:59;98405.13;;;30.58;42.58
10618;BME280;5356;43.526;26.534;2023-06-10T13:00:27;98395.53;;;30.75;41.93
10618;BME280;5356;43.526;26.534;2023-06-10T13:02:59;98401.75;;;30.98;42.30
10618;BME280;5356;43.526;26.534;2023-06-10T13:05:26;98393.97;;;31.07;42.21
10618;BME280;5356;43.526;26.534;2023-06-10T13:07:51;98395.78;;;31.30;42.25
10618;BME280;5356;43.526;26.534;2023-06-10T13:10:17;98388.84;;;31.40;41.70
10618;BME280;5356;43.526;26.534;2023-06-10T13:12:43;98400.19;;;31.35;42.56
10618;BME280;5356;43.526;26.534;2023-06-10T13:15:09;98404.91;;;31.00;42.63